Weather observations for the past three days for
Erie Municipal Airport
Metric (Imperial)
Date Time (mdt) Wind (kph) Vis. (km) Weather Sky Cond. Temperature (ºC) Relative Humidity Wind Chill (°C) Heat Index (°C) Pressure Precipitation (cm)
Air Dwpt 6 hour altimeter (cm) sea level (mb) 1 hr 3 hr 6 hr
Max. Min.
09 10:15 Vrbl 6 14.48 Fair CLR 22.2 -6 15% 76.05 0.0
09 09:55 Calm 14.48 Fair CLR 21.4 -4.5 17% 76.02 0.0
09 09:35 NE 6 14.48 Fair CLR 20.9 -2.9 20% 76.05 0.0
09 09:15 Calm 14.48 Fair CLR 19.9 -2.4 22% 76.05 0.0
09 08:55 Calm 14.48 Fair CLR 18.8 0.9 30% 76.05 0.0
09 08:35 Calm 14.48 A Few Clouds FEW210 17.4 2.9 38% 76.05 0.0
09 08:15 Calm 12.87 Partly Cloudy SCT210 16.1 2.2 39% 76.05 0.0
09 07:55 Calm 14.48 A Few Clouds FEW180 13.4 5 57% 76.05 0.0
09 07:35 Calm 12.87 A Few Clouds FEW240 11 5.8 71% 76.05 0.0
09 07:15 Calm 12.87 Mostly Cloudy BKN240 10.5 4.7 68% 76.02 0.0
09 06:55 Calm 12.87 Mostly Cloudy BKN240 9.8 5 72% 76 0.0
09 06:35 SE 7 14.48 Partly Cloudy SCT270 9 4.8 75% 8 75.97 0.0
09 06:15 Calm 14.48 Overcast OVC270 9.1 4.1 71% 75.95 0.0
09 05:55 Calm 12.87 Mostly Cloudy BKN270 8.4 4.1 75% 75.95 0.0
09 05:35 NE 11 14.48 Fair CLR 9.8 3.9 67% 8 75.92 0.0
09 05:15 Calm 14.48 Fair CLR 7.6 5 84% 75.9 0.0
09 04:55 E 7 14.48 Fair CLR 6.7 5.2 90% 6 75.9 0.0
09 04:35 Calm 14.48 A Few Clouds FEW340 7.3 5.5 88% 75.9 0.0
09 04:15 Calm 16.09 Fair CLR 8.2 5.7 84% 75.9 0.0
09 03:55 SE 6 16.09 A Few Clouds FEW340 7 5.6 91% 75.92 0.0
09 03:35 Calm 16.09 A Few Clouds FEW340 7.4 5.5 88% 75.92 0.0
09 03:15 Calm 14.48 A Few Clouds FEW340 8.3 5.6 83% 75.9 0.0
09 02:55 Calm 14.48 Fair CLR 8.8 5.9 82% 75.9 0.0
09 02:35 S 7 16.09 Fair CLR 9.2 5.8 80% 8 75.9 0.0
09 01:55 Calm 14.48 Fair CLR 10 5.6 74% 75.92 0.0
09 01:35 S 7 16.09 Fair CLR 9.5 5.9 78% 9 75.92 0.0
09 01:15 Calm 16.09 Fair CLR 9.8 5.6 75% 75.95 0.0
09 00:55 Calm 16.09 Fair CLR 10.7 5.2 69% 75.92 0.0
09 00:35 N 7 16.09 Fair CLR 11.5 4.9 64% 75.95 0.0
09 00:15 N 11 16.09 Fair CLR 11.1 5.2 67% 75.95 0.0
08 23:55 SW 7 16.09 Fair CLR 12.5 4.5 58% 75.95 0.0
08 23:35 SW 7 16.09 Fair CLR 12.9 4.6 57% 75.97 0.0
08 23:15 Calm 16.09 Partly Cloudy SCT130 14.8 3.9 48% 76 0.0
08 22:55 S 11 16.09 Partly Cloudy SCT130 15.6 3.3 44% 76 0.0
08 22:35 SE 11 16.09 A Few Clouds FEW130 15.6 3.3 44% 76.02 0.0
08 22:15 SE 15 16.09 Partly Cloudy SCT130 15.8 3.1 43% 76.05 0.0
08 21:55 SE 7 16.09 Mostly Cloudy BKN140 15.9 3.4 43% 76.07 0.0
08 21:35 SE 7 16.09 Partly Cloudy SCT140 16.1 3.2 42% 76.07 0.0
08 21:15 SE 11 14.48 Fair CLR 16.2 3.1 42% 76.05 0.0
08 20:55 SE 11 14.48 Fair CLR 16.6 3 40% 76.05 0.0
08 20:35 SE 9 12.87 Partly Cloudy SCT120 15.8 3.3 43% 76.02 0.0
08 20:15 SE 7 11.27 Partly Cloudy SCT130 15.4 4.1 47% 76.02 0.0
08 19:55 E 7 11.27 Mostly Cloudy BKN120 16.3 3.6 43% 76.02 0.0
08 19:35 E 11 11.27 Partly Cloudy SCT130 17.6 3.3 39% 76 0.0
08 19:15 E 13 11.27 Fair CLR 18.8 2.7 34% 76 0.0
08 18:35 SE 15 12.87 Fair CLR 20.6 2.8 31% 76 0.0
08 18:15 E 9 12.87 Fair CLR 20.7 3 31% 76 0.0
08 17:55 E 13 14.48 Fair CLR 20.9 2.9 31% 76 0.0
08 17:35 E 13 12.87 Fair CLR 21 3 31% 76 0.0
08 17:15 NE 20 G 31 12.87 Fair CLR 21 3.6 32% 75.97 0.0
08 16:55 Vrbl 9 12.87 Fair CLR 21 3.6 32% 76 0.0
08 16:15 E 9 12.87 Fair CLR 21.3 3.5 31% 76.02 0.0
08 15:55 Calm 12.87 A Few Clouds FEW240 20.8 3.5 32% 76.05 0.0
08 15:30 E 13 12.87 A Few Clouds FEW240 20.3 3.7 34% 76.05 0.0
08 15:15 Vrbl 6 12.87 Partly Cloudy SCT240 SCT360 19.9 3.7 34% 76.07 0.0
08 14:55 Vrbl 6 12.87 Partly Cloudy FEW240 SCT370 20.8 4.1 34% 76.07 0.0
08 14:35 NE 6 12.87 Fair CLR 19.4 3.9 36% 76.1 0.0
08 14:15 Calm 12.87 Fair CLR 19 4.2 38% 76.12 0.0
08 13:55 NE 7 12.87 Fair CLR 19.2 4.2 37% 76.12 0.0
08 13:35 Vrbl 6 12.87 Fair CLR 18.5 3.3 37% 76.15 0.0
08 13:15 Vrbl 9 14.48 Fair CLR 18.2 3.6 38% 76.15 0.0
08 12:55 NE 13 12.87 Fair CLR 17.7 3.9 40% 76.17 0.0
08 12:35 NE 11 14.48 Fair CLR 17.1 4 42% 76.2 0.0
08 12:15 Vrbl 7 14.48 Fair CLR 16.6 3.9 43% 76.23 0.0
08 11:55 N 9 14.48 Fair CLR 16.5 3.3 42% 76.25 0.0
08 11:35 NE 15 14.48 Fair CLR 16.2 3.7 44% 76.25 0.0
08 11:15 E 9 14.48 Fair CLR 15.5 3.9 46% 76.25 0.0
08 10:55 E 13 14.48 Fair CLR 15.4 3.5 45% 76.28 0.0
08 10:35 N 9 14.48 Fair CLR 15.5 3.3 44% 76.28 0.0
08 10:15 SE 11 14.48 A Few Clouds FEW100 15.1 4.2 48% 76.28 0.0
08 09:55 SE 7 14.48 Fair CLR 14.2 3.7 50% 76.28 0.0
08 09:35 SE 7 14.48 A Few Clouds FEW100 14.5 4.7 52% 76.28 0.0
08 09:15 S 7 14.48 Mostly Cloudy BKN100 12.8 5.1 60% 76.28 0.0
08 08:55 S 9 16.09 Overcast OVC100 12.7 5.2 61% 76.28 0.0
08 08:35 S 9 16.09 Mostly Cloudy BKN100 11.1 7.7 80% 76.28 0.0
08 08:15 S 11 14.48 Mostly Cloudy SCT110 BKN130 9.5 7.8 89% 8 76.28 0.0
08 07:55 SW 11 14.48 Partly Cloudy SCT120 8.9 7.5 91% 7 76.3 0.0
08 07:15 S 7 14.48 Mostly Cloudy SCT100 BKN130 7 6.8 99% 6 76.33 0.0
08 06:35 SW 6 14.48 Overcast BKN041 BKN050 OVC100 6.7 6.2 97% 76.33 0.0
08 06:15 Calm 14.48 Overcast OVC038 6.1 6.1 100% 76.33 0.0
08 05:55 Calm 14.48 Mostly Cloudy BKN037 BKN140 5.6 5.6 100% 76.3 0.0
08 05:35 Calm 16.09 Partly Cloudy FEW038 SCT130 4.9 4.9 100% 76.23 0.0
08 05:15 SW 7 16.09 Mostly Cloudy FEW038 BKN130 5.3 5.3 100% 4 76.2 0.0
08 04:55 SW 7 16.09 Partly Cloudy SCT130 5.4 5.4 100% 4 76.23 0.0
08 04:35 Calm 16.09 Partly Cloudy FEW110 SCT130 6.3 6.3 100% 76.2 0.0
08 04:15 NE 6 16.09 Overcast OVC110 6.2 6.2 100% 76.2 0.0
08 03:55 Calm 16.09 Mostly Cloudy BKN120 6.1 6.1 100% 76.17 0.0
08 03:35 SW 6 16.09 Fair CLR 6.4 6.4 100% 76.12 0.0
08 03:15 S 9 16.09 Fair CLR 6.2 6.2 100% 5 76.15 0.0
08 02:55 Calm 16.09 Fair CLR 6.1 6.1 100% 76.15 0.0
08 02:35 E 6 16.09 A Few Clouds FEW100 6.5 6.5 100% 76.17 0.0
08 02:15 E 6 16.09 A Few Clouds FEW100 7.1 7.1 100% 76.2 0.0
08 01:35 Calm 16.09 Fair CLR 7.4 7.3 99% 76.23 0.0
08 01:15 Calm 16.09 Fair CLR 8.4 8.1 98% 76.23 0.0
08 00:55 SW 7 16.09 Fair CLR 8.8 7.8 94% 8 76.2 0.0
08 00:35 NE 6 16.09 Partly Cloudy SCT150 10.3 7.6 84% 76.15 0.0
08 00:15 E 9 14.48 Overcast BKN130 OVC160 9.9 8.6 92% 9 76.15 0.0
07 23:55 E 7 14.48 Overcast FEW007 SCT041 SCT060 BKN080 OVC120 10.7 8.5 86% 76.17 0.0
07 23:35 NW 19 12.87 Light Rain FEW010 SCT060 BKN080 OVC100 12.3 6.4 68% 76.25 0.0
07 23:15 N 6 16.09 Overcast SCT100 BKN120 OVC160 12.4 5.6 63% 76.12 0.0
07 22:55 NE 9 16.09 Overcast OVC140 12.8 5.3 61% 76.1 0.0
07 22:35 E 9 16.09 Mostly Cloudy SCT110 BKN140 12.6 5.5 62% 76.1 0.0
07 22:15 Calm 16.09 Mostly Cloudy SCT060 SCT080 BKN090 BKN110 12.8 5.8 63% 76.12 0.0
07 21:55 N 6 11.27 Overcast FEW050 SCT080 BKN095 OVC140 13.5 5.1 57% 76.15 0.0
07 21:35 E 15 11.27 Mostly Cloudy FEW070 BKN090 13.7 4.5 54% 76.07 0.0
07 20:55 Calm 11.27 Overcast OVC095 16.2 1.8 38% 76.05 0.0
07 20:35 NE 6 11.27 Overcast OVC095 16 2.3 40% 76.02 0.0
07 20:15 SE 6 11.27 Overcast BKN100 BKN120 OVC150 16.2 2.2 39% 76 0.0
07 19:55 S 6 9.66 Mostly Cloudy with Haze FEW037 SCT110 BKN150 17.5 -0.4 30% 75.97 0.0
07 19:35 Vrbl 11 9.66 Light Rain FEW038 SCT065 OVC095 17.1 1.7 36% 76 0.0
07 19:15 NE 11 G 31 9.66 Overcast with Haze OVC100 17.3 1.3 34% 75.95 0.0
07 18:55 N 15 9.66 Overcast with Haze OVC100 18.6 -0.3 28% 75.92 0.0
07 18:35 N 17 9.66 Overcast with Haze OVC100 19.8 -2 23% 75.9 0.0
07 18:15 Vrbl 9 11.27 Overcast OVC100 21.4 -2.3 20% 75.9 0.0
07 17:55 Calm 9.66 Overcast with Haze OVC110 21.9 -2.6 19% 75.87 0.0
07 17:35 SW 15 11.27 Overcast OVC110 22.4 -1.8 20% 75.87 0.0
07 17:15 W 11 12.87 Mostly Cloudy BKN110 22.2 -2.3 19% 75.9 0.0
07 16:55 Calm 11.27 Fair CLR 20.6 -2.9 20% 75.9 0.0
07 16:35 SW 13 12.87 Fair CLR 21.5 -1.5 21% 75.92 0.0
07 16:15 W 17 12.87 Fair CLR 21.7 -1.7 21% 75.92 0.0
07 15:55 W 22 12.87 Fair CLR 21.1 -2.1 21% 75.95 0.0
07 15:35 W 15 12.87 Fair CLR 21.1 -1.5 22% 75.97 0.0
07 15:15 W 28 G 33 12.87 Fair CLR 21.2 -1.4 22% 76 0.0
07 14:55 W 28 14.48 A Few Clouds FEW120 20.8 -1.3 23% 76.02 0.0
07 14:35 SW 19 12.87 Mostly Cloudy BKN120 19.9 -1.5 24% 76.05 0.0
07 14:15 W 15 12.87 Mostly Cloudy FEW100 BKN180 20.6 -1.2 23% 76.05 0.0
07 13:35 SW 20 14.48 Fair CLR 19.8 -0.8 25% 76.1 0.0
07 13:15 W 11 12.87 Fair CLR 19.1 -2.4 23% 76.12 0.0
07 12:55 W 22 14.48 Partly Cloudy FEW160 SCT180 18.9 -1.9 25% 76.15 0.0
07 12:35 W 17 12.87 Mostly Cloudy SCT160 BKN180 18.3 -0.8 28% 76.15 0.0
07 12:15 W 17 14.48 Overcast OVC180 17 -1.4 29% 76.15 0.0
07 11:55 SW 15 14.48 Mostly Cloudy BKN180 17 -1.2 29% 76.12 0.0
07 11:15 W 9 14.48 A Few Clouds FEW130 15.9 -0.9 32% 76.17 0.0
07 10:55 W 9 14.48 Mostly Cloudy BKN130 15.2 -1.4 32% 76.17 0.0
07 10:35 W 11 14.48 Overcast OVC120 14.7 -1.4 33% 76.17 0.0
07 09:55 W 20 14.48 A Few Clouds FEW110 16.5 -0.2 32% 76.2 0.0
07 09:35 W 17 16.09 A Few Clouds FEW120 16.5 0.1 33% 76.2 0.0
07 09:15 W 7 16.09 Fair CLR 15.1 -1.1 33% 76.2 0.0
07 08:55 Calm 14.48 A Few Clouds FEW240 14.5 -0.6 36% 76.23 0.0
07 08:35 SW 7 14.48 Fair CLR 13.4 -0.6 38% 76.2 0.0
07 08:15 SW 9 14.48 Fair CLR 12.2 -0.1 43% 76.2 0.0
07 07:55 S 7 16.09 Fair CLR 11.9 -1.5 40% 76.2 0.0
07 07:35 S 7 16.09 Fair CLR 11 -1.4 42% 76.2 0.0
07 07:15 SW 9 16.09 Fair CLR 9.5 -1.2 48% 8 76.2 0.0
07 06:55 S 9 16.09 Fair CLR 7.7 -1.6 52% 6 76.17 0.0
07 06:35 S 11 14.48 Fair CLR 7.3 -3 48% 5 76.17 0.0
07 06:15 S 11 14.48 Fair CLR 5.5 -2.6 56% 3 76.17 0.0
07 05:55 S 9 16.09 Fair CLR 4.1 -2.7 62% 2 76.15 0.0
07 05:35 SW 9 14.48 Fair CLR 1.9 -1.9 76% -1 76.17 0.0
07 04:55 Calm 16.09 Fair CLR 3.9 -3.3 60% 76.17 0.0
07 04:35 S 13 16.09 Fair CLR 5.3 -4 51% 3 76.17 0.0
07 04:15 S 11 16.09 Fair CLR 5.3 -4.1 51% 3 76.17 0.0
07 03:55 SE 13 16.09 Fair CLR 5.7 -4.4 49% 3 76.17 0.0
07 03:35 S 11 16.09 Fair CLR 4.9 -4 53% 3 76.2 0.0
07 03:15 S 7 16.09 Fair CLR 3.9 -3.8 58% 2 76.2 0.0
07 02:55 S 17 16.09 Fair CLR 4.4 -3.7 56% 1 76.2 0.0
07 02:35 S 13 14.48 Fair CLR 4.7 -4.3 52% 2 76.2 0.0
07 02:15 S 19 14.48 Fair CLR 3.5 -3 63% -0 76.2 0.0
07 01:55 S 15 14.48 Fair CLR 3.3 -2.4 67% 0 76.23 0.0
07 01:35 SW 11 14.48 Fair CLR 1.6 -1.9 78% -1 76.25 0.0
07 01:15 SW 11 14.48 Fair CLR 0.9 -1.6 84% -2 76.28 0.0
07 00:55 S 6 14.48 Fair CLR 0.1 -1 92% 76.28 0.0
07 00:35 Calm 14.48 Fair CLR 0 -1 93% 76.28 0.0
07 00:15 Vrbl 6 12.87 Fair CLR 0 -0.7 95% 76.28 0.0
06 23:55 S 9 12.87 Fair CLR -0.1 -0.8 95% -3 76.3 0.0
06 23:35 SW 7 14.48 Fair CLR 0 -0.7 95% -2 76.33 0.0
06 23:15 Calm 14.48 Fair CLR 0.1 -0.5 96% 76.35 0.0
06 22:35 SW 6 16.09 Fair CLR -0.1 -0.6 96% 76.35 0.0
06 22:15 Calm 16.09 Fair CLR 0.6 0 96% 76.35 0.0
06 21:55 Calm 16.09 Fair CLR 0.3 -0.3 96% 76.38 0.0
06 21:35 Calm 16.09 Fair CLR -0.3 -1 95% 76.4 0.0
06 21:15 Calm 16.09 Fair CLR 0.5 -0.5 93% 76.4 0.0
06 20:55 Calm 16.09 Fair CLR 2 0 87% 76.35 0.0
06 20:35 Calm 16.09 Fair CLR 2.4 0.3 86% 76.35 0.0
06 19:55 S 7 16.09 Fair CLR 3.9 -0.6 73% 2 76.33 0.0
06 19:35 S 9 16.09 Fair CLR 4.7 -1.3 65% 3 76.33 0.0
06 19:15 S 11 16.09 Fair CLR 5.3 -1.2 63% 3 76.33 0.0
06 18:55 S 17 14.48 Fair CLR 5.7 -1 62% 3 76.35 0.0
06 18:35 S 11 16.09 Fair CLR 5.6 -1.2 62% 3 76.35 0.0
06 18:15 SW 13 16.09 Fair CLR 5.8 -0.9 62% 3 76.38 0.0
06 17:55 S 11 16.09 Fair CLR 5.9 -1.1 61% 4 76.38 0.0
06 17:35 Vrbl 6 16.09 Fair CLR 5 -1.6 63% 76.4 0.0
06 17:15 SE 11 16.09 Fair CLR 4.8 -1.4 65% 3 76.38 0.0
06 16:55 SE 13 16.09 A Few Clouds FEW026 4.8 -0.9 67% 2 76.4 0.0
06 16:35 S 9 16.09 Partly Cloudy SCT026 5.3 -0.2 68% 3 76.43 0.0
06 16:15 Vrbl 9 16.09 Partly Cloudy SCT027 5 -0.8 66% 3 76.45 0.0
06 15:55 S 11 16.09 Overcast OVC027 4.9 -0.8 67% 3 76.45 0.0
06 15:35 Vrbl 6 16.09 Overcast OVC027 4.5 -0.9 68% 76.48 0.0
06 15:15 S 7 16.09 Overcast OVC028 4.5 -0.5 70% 3 76.48 0.0
06 14:55 Calm 16.09 Overcast OVC027 3.5 -1.2 72% 76.5 0.0
06 14:35 Calm 16.09 Overcast OVC024 3.5 -1.2 72% 76.53 0.0
06 14:15 Calm 16.09 Overcast OVC024 1.8 -1.6 78% 76.53 0.0
06 13:55 Calm 16.09 Overcast FEW016 OVC024 2.2 -1.3 78% 76.56 0.0
06 13:35 Calm 16.09 Overcast BKN016 OVC029 1.8 -0.9 83% 76.56 0.0
06 13:15 Calm 16.09 Overcast BKN014 OVC030 2 -1 81% 76.58 0.0
06 12:55 Calm 16.09 Overcast BKN013 OVC021 1.1 -1 86% 76.58 0.0
06 12:35 Calm 16.09 Overcast BKN012 BKN019 OVC095 1.5 -0.9 84% 76.61 0.0
06 12:15 N 6 16.09 Overcast BKN015 BKN021 OVC028 0.6 -0.7 91% 76.61 0.0
06 11:55 NW 7 16.09 Overcast SCT008 BKN016 BKN027 OVC032 0.7 -0.5 92% -1 76.61 0.0
06 11:35 Calm 16.09 Overcast SCT009 BKN013 OVC028 0.4 -0.4 94% 76.61 0.0 0.03
06 11:15 NE 9 9.66 Light Snow Fog/Mist BKN008 OVC012 -0.5 -0.7 99% -3 76.61 0.0 0.03
06 10:55 NE 9 1.61 Light Snow Fog/Mist BKN005 BKN011 OVC022 -0.6 -0.6 100% -3 76.58 0.0 0.03
06 10:35 N 7 8.05 Light Snow Fog/Mist SCT006 BKN011 OVC021 0.2 -0.1 98% -2 76.56 0.0
Date Time (mdt) Wind (kph) Vis. (km) Weather Sky Cond. Air Dwpt Max. Min. Relative Humidity Wind Chill (°C) Heat Index (°C) altimeter (cm) sea level (mb) 1 hr 3 hr 6 hr
6 hour
Temperature (ºC) Pressure Precipitation (cm)